sensor_id;sensor_type;location;lat;lon;timestamp;P1;durP1;ratioP1;P2;durP2;ratioP2
12689;SDS011;6409;56.294;14.480;2023-08-30T00:00:49;0.70;;;0.70;;
12689;SDS011;6409;56.294;14.480;2023-08-30T00:03:16;0.60;;;0.60;;
12689;SDS011;6409;56.294;14.480;2023-08-30T00:05:43;0.60;;;0.60;;
12689;SDS011;6409;56.294;14.480;2023-08-30T00:08:10;0.50;;;0.50;;
12689;SDS011;6409;56.294;14.480;2023-08-30T00:10:38;2.23;;;0.63;;
12689;SDS011;6409;56.294;14.480;2023-08-30T00:13:09;0.50;;;0.50;;
12689;SDS011;6409;56.294;14.480;2023-08-30T00:15:36;0.77;;;0.77;;
12689;SDS011;6409;56.294;14.480;2023-08-30T00:18:03;0.60;;;0.60;;
12689;SDS011;6409;56.294;14.480;2023-08-30T00:20:31;0.60;;;0.60;;
12689;SDS011;6409;56.294;14.480;2023-08-30T00:22:59;0.50;;;0.50;;
12689;SDS011;6409;56.294;14.480;2023-08-30T00:25:26;0.50;;;0.50;;
12689;SDS011;6409;56.294;14.480;2023-08-30T00:27:53;0.60;;;0.60;;
12689;SDS011;6409;56.294;14.480;2023-08-30T00:30:21;0.50;;;0.50;;
12689;SDS011;6409;56.294;14.480;2023-08-30T00:32:48;0.40;;;0.40;;
12689;SDS011;6409;56.294;14.480;2023-08-30T00:35:15;0.60;;;0.60;;
12689;SDS011;6409;56.294;14.480;2023-08-30T00:37:42;0.57;;;0.57;;
12689;SDS011;6409;56.294;14.480;2023-08-30T00:40:09;0.43;;;0.43;;
12689;SDS011;6409;56.294;14.480;2023-08-30T00:42:36;0.40;;;0.40;;
12689;SDS011;6409;56.294;14.480;2023-08-30T00:45:06;0.40;;;0.40;;
12689;SDS011;6409;56.294;14.480;2023-08-30T00:47:34;0.50;;;0.50;;
12689;SDS011;6409;56.294;14.480;2023-08-30T00:50:02;0.50;;;0.50;;
12689;SDS011;6409;56.294;14.480;2023-08-30T00:52:29;1.43;;;0.70;;
12689;SDS011;6409;56.294;14.480;2023-08-30T00:54:56;0.50;;;0.50;;
12689;SDS011;6409;56.294;14.480;2023-08-30T00:57:23;0.70;;;0.70;;
12689;SDS011;6409;56.294;14.480;2023-08-30T00:59:50;0.47;;;0.47;;
12689;SDS011;6409;56.294;14.480;2023-08-30T01:02:18;0.50;;;0.50;;
12689;SDS011;6409;56.294;14.480;2023-08-30T01:04:46;1.90;;;0.60;;
12689;SDS011;6409;56.294;14.480;2023-08-30T01:07:13;0.50;;;0.50;;
12689;SDS011;6409;56.294;14.480;2023-08-30T01:09:40;0.50;;;0.50;;
12689;SDS011;6409;56.294;14.480;2023-08-30T01:12:09;0.50;;;0.50;;
12689;SDS011;6409;56.294;14.480;2023-08-30T01:14:38;0.50;;;0.50;;
12689;SDS011;6409;56.294;14.480;2023-08-30T01:17:07;0.40;;;0.40;;
12689;SDS011;6409;56.294;14.480;2023-08-30T01:19:41;0.40;;;0.40;;
12689;SDS011;6409;56.294;14.480;2023-08-30T01:22:15;0.50;;;0.50;;
12689;SDS011;6409;56.294;14.480;2023-08-30T01:24:45;0.80;;;0.80;;
12689;SDS011;6409;56.294;14.480;2023-08-30T01:27:20;0.60;;;0.60;;
12689;SDS011;6409;56.294;14.480;2023-08-30T01:29:48;0.40;;;0.40;;
12689;SDS011;6409;56.294;14.480;2023-08-30T01:32:16;0.50;;;0.50;;
12689;SDS011;6409;56.294;14.480;2023-08-30T01:34:45;0.50;;;0.50;;
12689;SDS011;6409;56.294;14.480;2023-08-30T01:37:12;2.53;;;0.60;;
12689;SDS011;6409;56.294;14.480;2023-08-30T01:39:40;0.50;;;0.50;;
12689;SDS011;6409;56.294;14.480;2023-08-30T01:42:08;0.43;;;0.43;;
12689;SDS011;6409;56.294;14.480;2023-08-30T01:44:37;0.47;;;0.47;;
12689;SDS011;6409;56.294;14.480;2023-08-30T01:47:04;0.50;;;0.50;;
12689;SDS011;6409;56.294;14.480;2023-08-30T01:49:32;0.40;;;0.40;;
12689;SDS011;6409;56.294;14.480;2023-08-30T01:51:59;0.67;;;0.67;;
12689;SDS011;6409;56.294;14.480;2023-08-30T01:54:26;1.50;;;0.60;;
12689;SDS011;6409;56.294;14.480;2023-08-30T01:56:54;0.40;;;0.40;;
12689;SDS011;6409;56.294;14.480;2023-08-30T01:59:23;0.40;;;0.40;;
12689;SDS011;6409;56.294;14.480;2023-08-30T02:01:52;0.63;;;0.50;;
12689;SDS011;6409;56.294;14.480;2023-08-30T02:04:19;0.60;;;0.60;;
12689;SDS011;6409;56.294;14.480;2023-08-30T02:06:48;1.20;;;0.60;;
12689;SDS011;6409;56.294;14.480;2023-08-30T02:09:17;0.43;;;0.43;;
12689;SDS011;6409;56.294;14.480;2023-08-30T02:11:48;0.53;;;0.53;;
12689;SDS011;6409;56.294;14.480;2023-08-30T02:14:17;0.50;;;0.50;;
12689;SDS011;6409;56.294;14.480;2023-08-30T02:16:44;0.43;;;0.43;;
12689;SDS011;6409;56.294;14.480;2023-08-30T02:19:13;0.50;;;0.50;;
12689;SDS011;6409;56.294;14.480;2023-08-30T02:21:42;0.40;;;0.40;;
12689;SDS011;6409;56.294;14.480;2023-08-30T02:24:09;0.60;;;0.60;;
12689;SDS011;6409;56.294;14.480;2023-08-30T02:26:36;0.70;;;0.70;;
12689;SDS011;6409;56.294;14.480;2023-08-30T02:29:03;0.50;;;0.50;;
12689;SDS011;6409;56.294;14.480;2023-08-30T02:31:30;0.60;;;0.60;;
12689;SDS011;6409;56.294;14.480;2023-08-30T02:33:57;0.70;;;0.70;;
12689;SDS011;6409;56.294;14.480;2023-08-30T02:36:25;0.50;;;0.50;;
12689;SDS011;6409;56.294;14.480;2023-08-30T02:38:52;0.60;;;0.60;;
12689;SDS011;6409;56.294;14.480;2023-08-30T02:41:19;0.43;;;0.43;;
12689;SDS011;6409;56.294;14.480;2023-08-30T02:43:46;0.50;;;0.50;;
12689;SDS011;6409;56.294;14.480;2023-08-30T02:46:13;0.40;;;0.40;;
12689;SDS011;6409;56.294;14.480;2023-08-30T02:48:40;1.37;;;0.47;;
12689;SDS011;6409;56.294;14.480;2023-08-30T02:51:07;0.53;;;0.53;;
12689;SDS011;6409;56.294;14.480;2023-08-30T02:53:35;0.60;;;0.60;;
12689;SDS011;6409;56.294;14.480;2023-08-30T02:56:02;0.50;;;0.50;;
12689;SDS011;6409;56.294;14.480;2023-08-30T02:58:29;0.50;;;0.50;;
12689;SDS011;6409;56.294;14.480;2023-08-30T03:00:56;0.50;;;0.50;;
12689;SDS011;6409;56.294;14.480;2023-08-30T03:03:23;0.80;;;0.80;;
12689;SDS011;6409;56.294;14.480;2023-08-30T03:05:50;0.50;;;0.50;;
12689;SDS011;6409;56.294;14.480;2023-08-30T03:08:17;0.50;;;0.50;;
12689;SDS011;6409;56.294;14.480;2023-08-30T03:10:45;0.50;;;0.50;;
12689;SDS011;6409;56.294;14.480;2023-08-30T03:13:12;0.50;;;0.50;;
12689;SDS011;6409;56.294;14.480;2023-08-30T03:15:39;0.63;;;0.63;;
12689;SDS011;6409;56.294;14.480;2023-08-30T03:18:06;0.93;;;0.53;;
12689;SDS011;6409;56.294;14.480;2023-08-30T03:20:33;0.50;;;0.50;;
12689;SDS011;6409;56.294;14.480;2023-08-30T03:23:00;0.40;;;0.40;;
12689;SDS011;6409;56.294;14.480;2023-08-30T03:25:28;0.43;;;0.43;;
12689;SDS011;6409;56.294;14.480;2023-08-30T03:27:56;0.50;;;0.50;;
12689;SDS011;6409;56.294;14.480;2023-08-30T03:30:23;0.50;;;0.40;;
12689;SDS011;6409;56.294;14.480;2023-08-30T03:32:50;0.57;;;0.57;;
12689;SDS011;6409;56.294;14.480;2023-08-30T03:35:17;0.50;;;0.50;;
12689;SDS011;6409;56.294;14.480;2023-08-30T03:37:46;1.07;;;0.60;;
12689;SDS011;6409;56.294;14.480;2023-08-30T03:40:13;1.30;;;0.67;;
12689;SDS011;6409;56.294;14.480;2023-08-30T03:42:40;1.50;;;0.80;;
12689;SDS011;6409;56.294;14.480;2023-08-30T03:45:09;0.67;;;0.63;;
12689;SDS011;6409;56.294;14.480;2023-08-30T03:47:36;0.50;;;0.50;;
12689;SDS011;6409;56.294;14.480;2023-08-30T03:50:03;0.57;;;0.57;;
12689;SDS011;6409;56.294;14.480;2023-08-30T03:52:31;0.60;;;0.60;;
12689;SDS011;6409;56.294;14.480;2023-08-30T03:54:58;0.67;;;0.63;;
12689;SDS011;6409;56.294;14.480;2023-08-30T03:57:25;1.07;;;0.90;;
12689;SDS011;6409;56.294;14.480;2023-08-30T03:59:52;0.60;;;0.60;;
12689;SDS011;6409;56.294;14.480;2023-08-30T04:02:21;0.50;;;0.50;;
12689;SDS011;6409;56.294;14.480;2023-08-30T04:04:48;1.53;;;0.40;;
12689;SDS011;6409;56.294;14.480;2023-08-30T04:07:15;0.80;;;0.80;;
12689;SDS011;6409;56.294;14.480;2023-08-30T04:09:42;0.30;;;0.30;;
12689;SDS011;6409;56.294;14.480;2023-08-30T04:12:09;0.40;;;0.40;;
12689;SDS011;6409;56.294;14.480;2023-08-30T04:14:36;0.40;;;0.40;;
12689;SDS011;6409;56.294;14.480;2023-08-30T04:17:03;0.53;;;0.53;;
12689;SDS011;6409;56.294;14.480;2023-08-30T04:19:31;0.50;;;0.50;;
12689;SDS011;6409;56.294;14.480;2023-08-30T04:21:58;3.20;;;0.57;;
12689;SDS011;6409;56.294;14.480;2023-08-30T04:24:25;0.63;;;0.63;;
12689;SDS011;6409;56.294;14.480;2023-08-30T04:26:52;0.70;;;0.70;;
12689;SDS011;6409;56.294;14.480;2023-08-30T04:29:19;0.43;;;0.43;;
12689;SDS011;6409;56.294;14.480;2023-08-30T04:31:46;0.50;;;0.50;;
12689;SDS011;6409;56.294;14.480;2023-08-30T04:34:13;1.10;;;0.60;;
12689;SDS011;6409;56.294;14.480;2023-08-30T04:36:42;0.50;;;0.50;;
12689;SDS011;6409;56.294;14.480;2023-08-30T04:39:09;0.50;;;0.50;;
12689;SDS011;6409;56.294;14.480;2023-08-30T04:41:36;0.60;;;0.60;;
12689;SDS011;6409;56.294;14.480;2023-08-30T04:44:03;0.40;;;0.40;;
12689;SDS011;6409;56.294;14.480;2023-08-30T04:46:30;0.50;;;0.50;;
12689;SDS011;6409;56.294;14.480;2023-08-30T04:48:57;0.40;;;0.40;;
12689;SDS011;6409;56.294;14.480;2023-08-30T04:51:24;0.50;;;0.50;;
12689;SDS011;6409;56.294;14.480;2023-08-30T04:53:53;0.50;;;0.50;;
12689;SDS011;6409;56.294;14.480;2023-08-30T04:56:19;1.47;;;0.80;;
12689;SDS011;6409;56.294;14.480;2023-08-30T04:58:46;0.40;;;0.40;;
12689;SDS011;6409;56.294;14.480;2023-08-30T05:01:14;0.50;;;0.50;;
12689;SDS011;6409;56.294;14.480;2023-08-30T05:03:41;0.50;;;0.50;;
12689;SDS011;6409;56.294;14.480;2023-08-30T05:06:08;0.33;;;0.33;;
12689;SDS011;6409;56.294;14.480;2023-08-30T05:08:37;0.40;;;0.40;;
12689;SDS011;6409;56.294;14.480;2023-08-30T05:11:05;1.30;;;0.53;;
12689;SDS011;6409;56.294;14.480;2023-08-30T05:13:32;0.60;;;0.60;;
12689;SDS011;6409;56.294;14.480;2023-08-30T05:15:59;0.50;;;0.50;;
12689;SDS011;6409;56.294;14.480;2023-08-30T05:18:26;0.80;;;0.80;;
12689;SDS011;6409;56.294;14.480;2023-08-30T05:20:53;0.50;;;0.50;;
12689;SDS011;6409;56.294;14.480;2023-08-30T05:23:20;0.50;;;0.50;;
12689;SDS011;6409;56.294;14.480;2023-08-30T05:25:46;0.47;;;0.47;;
12689;SDS011;6409;56.294;14.480;2023-08-30T05:28:15;0.53;;;0.53;;
12689;SDS011;6409;56.294;14.480;2023-08-30T05:30:42;0.50;;;0.50;;
12689;SDS011;6409;56.294;14.480;2023-08-30T05:33:09;0.40;;;0.40;;
12689;SDS011;6409;56.294;14.480;2023-08-30T05:35:36;0.47;;;0.40;;
12689;SDS011;6409;56.294;14.480;2023-08-30T05:38:03;0.50;;;0.50;;
12689;SDS011;6409;56.294;14.480;2023-08-30T05:40:31;1.13;;;0.53;;
12689;SDS011;6409;56.294;14.480;2023-08-30T05:42:58;0.50;;;0.50;;
12689;SDS011;6409;56.294;14.480;2023-08-30T05:45:26;0.50;;;0.50;;
12689;SDS011;6409;56.294;14.480;2023-08-30T05:47:53;0.50;;;0.50;;
12689;SDS011;6409;56.294;14.480;2023-08-30T05:50:20;0.63;;;0.50;;
12689;SDS011;6409;56.294;14.480;2023-08-30T05:52:47;0.47;;;0.47;;
12689;SDS011;6409;56.294;14.480;2023-08-30T05:55:14;0.60;;;0.50;;
12689;SDS011;6409;56.294;14.480;2023-08-30T05:57:41;0.50;;;0.50;;
12689;SDS011;6409;56.294;14.480;2023-08-30T06:00:08;0.50;;;0.50;;
12689;SDS011;6409;56.294;14.480;2023-08-30T06:02:37;0.50;;;0.50;;
12689;SDS011;6409;56.294;14.480;2023-08-30T06:05:04;0.80;;;0.80;;
12689;SDS011;6409;56.294;14.480;2023-08-30T06:07:31;0.50;;;0.50;;
12689;SDS011;6409;56.294;14.480;2023-08-30T06:09:58;0.60;;;0.60;;
12689;SDS011;6409;56.294;14.480;2023-08-30T06:12:25;0.40;;;0.40;;
12689;SDS011;6409;56.294;14.480;2023-08-30T06:14:52;0.60;;;0.60;;
12689;SDS011;6409;56.294;14.480;2023-08-30T06:17:19;0.43;;;0.43;;
12689;SDS011;6409;56.294;14.480;2023-08-30T06:19:48;0.60;;;0.60;;
12689;SDS011;6409;56.294;14.480;2023-08-30T06:22:15;0.60;;;0.60;;
12689;SDS011;6409;56.294;14.480;2023-08-30T06:24:42;0.70;;;0.70;;
12689;SDS011;6409;56.294;14.480;2023-08-30T06:27:09;0.60;;;0.60;;
12689;SDS011;6409;56.294;14.480;2023-08-30T06:29:36;0.70;;;0.70;;
12689;SDS011;6409;56.294;14.480;2023-08-30T06:32:03;0.70;;;0.70;;
12689;SDS011;6409;56.294;14.480;2023-08-30T06:34:30;0.77;;;0.77;;
12689;SDS011;6409;56.294;14.480;2023-08-30T06:36:59;0.87;;;0.87;;
12689;SDS011;6409;56.294;14.480;2023-08-30T06:39:25;0.40;;;0.40;;
12689;SDS011;6409;56.294;14.480;2023-08-30T06:41:58;0.50;;;0.50;;
12689;SDS011;6409;56.294;14.480;2023-08-30T06:44:25;0.80;;;0.80;;
12689;SDS011;6409;56.294;14.480;2023-08-30T06:46:53;0.40;;;0.40;;
12689;SDS011;6409;56.294;14.480;2023-08-30T06:49:20;0.50;;;0.50;;
12689;SDS011;6409;56.294;14.480;2023-08-30T06:51:47;0.40;;;0.40;;
12689;SDS011;6409;56.294;14.480;2023-08-30T06:54:16;0.73;;;0.60;;
12689;SDS011;6409;56.294;14.480;2023-08-30T06:56:45;2.53;;;0.50;;
12689;SDS011;6409;56.294;14.480;2023-08-30T06:59:23;0.50;;;0.50;;
12689;SDS011;6409;56.294;14.480;2023-08-30T07:01:50;0.50;;;0.50;;
12689;SDS011;6409;56.294;14.480;2023-08-30T07:04:17;0.80;;;0.50;;
12689;SDS011;6409;56.294;14.480;2023-08-30T07:06:44;0.73;;;0.73;;
12689;SDS011;6409;56.294;14.480;2023-08-30T07:09:11;0.40;;;0.40;;
12689;SDS011;6409;56.294;14.480;2023-08-30T07:11:39;0.40;;;0.40;;
12689;SDS011;6409;56.294;14.480;2023-08-30T07:14:09;0.60;;;0.60;;
12689;SDS011;6409;56.294;14.480;2023-08-30T07:16:36;0.83;;;0.70;;
12689;SDS011;6409;56.294;14.480;2023-08-30T07:19:03;0.50;;;0.50;;
12689;SDS011;6409;56.294;14.480;2023-08-30T07:21:30;0.70;;;0.70;;
12689;SDS011;6409;56.294;14.480;2023-08-30T07:23:58;0.50;;;0.50;;
12689;SDS011;6409;56.294;14.480;2023-08-30T07:26:24;0.60;;;0.60;;
12689;SDS011;6409;56.294;14.480;2023-08-30T07:28:53;0.70;;;0.70;;
12689;SDS011;6409;56.294;14.480;2023-08-30T07:31:20;0.80;;;0.80;;
12689;SDS011;6409;56.294;14.480;2023-08-30T07:33:47;0.83;;;0.70;;
12689;SDS011;6409;56.294;14.480;2023-08-30T07:36:14;0.50;;;0.50;;
12689;SDS011;6409;56.294;14.480;2023-08-30T07:38:40;0.80;;;0.80;;
12689;SDS011;6409;56.294;14.480;2023-08-30T07:41:07;0.80;;;0.80;;
12689;SDS011;6409;56.294;14.480;2023-08-30T07:43:35;0.80;;;0.80;;
12689;SDS011;6409;56.294;14.480;2023-08-30T07:46:03;0.70;;;0.70;;
12689;SDS011;6409;56.294;14.480;2023-08-30T07:48:30;0.90;;;0.90;;
12689;SDS011;6409;56.294;14.480;2023-08-30T07:50:57;0.80;;;0.80;;
12689;SDS011;6409;56.294;14.480;2023-08-30T07:53:24;0.60;;;0.60;;
12689;SDS011;6409;56.294;14.480;2023-08-30T07:55:51;0.53;;;0.53;;
12689;SDS011;6409;56.294;14.480;2023-08-30T07:58:18;2.43;;;0.67;;
12689;SDS011;6409;56.294;14.480;2023-08-30T08:00:45;0.80;;;0.80;;
12689;SDS011;6409;56.294;14.480;2023-08-30T08:03:13;0.80;;;0.80;;
12689;SDS011;6409;56.294;14.480;2023-08-30T08:05:40;0.70;;;0.70;;
12689;SDS011;6409;56.294;14.480;2023-08-30T08:08:07;0.73;;;0.73;;
12689;SDS011;6409;56.294;14.480;2023-08-30T08:10:36;0.90;;;0.90;;
12689;SDS011;6409;56.294;14.480;2023-08-30T08:13:03;0.87;;;0.87;;
12689;SDS011;6409;56.294;14.480;2023-08-30T08:15:30;0.80;;;0.80;;
12689;SDS011;6409;56.294;14.480;2023-08-30T08:17:57;0.90;;;0.90;;
12689;SDS011;6409;56.294;14.480;2023-08-30T08:20:26;0.90;;;0.90;;
12689;SDS011;6409;56.294;14.480;2023-08-30T08:22:53;0.97;;;0.97;;
12689;SDS011;6409;56.294;14.480;2023-08-30T08:25:20;1.10;;;1.10;;
12689;SDS011;6409;56.294;14.480;2023-08-30T08:27:48;1.10;;;1.10;;
12689;SDS011;6409;56.294;14.480;2023-08-30T08:30:15;1.10;;;1.10;;
12689;SDS011;6409;56.294;14.480;2023-08-30T08:35:11;1.40;;;1.40;;
12689;SDS011;6409;56.294;14.480;2023-08-30T08:37:40;1.60;;;1.50;;
12689;SDS011;6409;56.294;14.480;2023-08-30T08:40:07;1.60;;;1.60;;
12689;SDS011;6409;56.294;14.480;2023-08-30T08:42:35;4.33;;;1.80;;
12689;SDS011;6409;56.294;14.480;2023-08-30T08:45:03;1.70;;;1.70;;
12689;SDS011;6409;56.294;14.480;2023-08-30T08:47:31;1.93;;;1.93;;
12689;SDS011;6409;56.294;14.480;2023-08-30T08:49:58;1.80;;;1.80;;
12689;SDS011;6409;56.294;14.480;2023-08-30T08:52:26;1.83;;;1.83;;
12689;SDS011;6409;56.294;14.480;2023-08-30T08:54:55;1.70;;;1.70;;
12689;SDS011;6409;56.294;14.480;2023-08-30T08:57:22;1.97;;;1.90;;
12689;SDS011;6409;56.294;14.480;2023-08-30T08:59:49;1.77;;;1.77;;
12689;SDS011;6409;56.294;14.480;2023-08-30T09:02:16;1.80;;;1.80;;
12689;SDS011;6409;56.294;14.480;2023-08-30T09:04:43;1.90;;;1.90;;
12689;SDS011;6409;56.294;14.480;2023-08-30T09:07:10;1.92;;;1.83;;
12689;SDS011;6409;56.294;14.480;2023-08-30T09:09:37;2.10;;;2.00;;
12689;SDS011;6409;56.294;14.480;2023-08-30T09:12:06;2.00;;;2.00;;
12689;SDS011;6409;56.294;14.480;2023-08-30T09:14:33;2.20;;;2.10;;
12689;SDS011;6409;56.294;14.480;2023-08-30T09:17:00;2.58;;;2.47;;
12689;SDS011;6409;56.294;14.480;2023-08-30T09:19:28;2.38;;;2.28;;
12689;SDS011;6409;56.294;14.480;2023-08-30T09:21:56;2.30;;;2.20;;
12689;SDS011;6409;56.294;14.480;2023-08-30T09:24:23;2.30;;;2.20;;
12689;SDS011;6409;56.294;14.480;2023-08-30T09:26:51;2.10;;;2.10;;
12689;SDS011;6409;56.294;14.480;2023-08-30T09:29:20;2.38;;;2.28;;
12689;SDS011;6409;56.294;14.480;2023-08-30T09:31:50;2.80;;;2.70;;
12689;SDS011;6409;56.294;14.480;2023-08-30T09:34:21;2.80;;;2.60;;
12689;SDS011;6409;56.294;14.480;2023-08-30T09:36:48;2.70;;;2.60;;
12689;SDS011;6409;56.294;14.480;2023-08-30T09:39:15;2.88;;;2.78;;
12689;SDS011;6409;56.294;14.480;2023-08-30T09:41:43;3.00;;;2.90;;
12689;SDS011;6409;56.294;14.480;2023-08-30T09:44:10;2.90;;;2.80;;
12689;SDS011;6409;56.294;14.480;2023-08-30T09:46:43;2.90;;;2.80;;
12689;SDS011;6409;56.294;14.480;2023-08-30T09:49:10;3.00;;;2.90;;
12689;SDS011;6409;56.294;14.480;2023-08-30T09:51:38;3.00;;;2.90;;
12689;SDS011;6409;56.294;14.480;2023-08-30T09:54:10;2.78;;;2.67;;
12689;SDS011;6409;56.294;14.480;2023-08-30T09:56:40;3.25;;;3.15;;
12689;SDS011;6409;56.294;14.480;2023-08-30T09:59:08;3.10;;;3.00;;
12689;SDS011;6409;56.294;14.480;2023-08-30T10:01:36;2.50;;;2.40;;
12689;SDS011;6409;56.294;14.480;2023-08-30T10:04:05;3.30;;;3.00;;
12689;SDS011;6409;56.294;14.480;2023-08-30T10:06:34;2.70;;;2.60;;
12689;SDS011;6409;56.294;14.480;2023-08-30T10:09:01;3.10;;;3.00;;
12689;SDS011;6409;56.294;14.480;2023-08-30T10:11:30;2.90;;;2.80;;
12689;SDS011;6409;56.294;14.480;2023-08-30T10:13:59;3.03;;;2.93;;
12689;SDS011;6409;56.294;14.480;2023-08-30T10:16:28;2.80;;;2.40;;
12689;SDS011;6409;56.294;14.480;2023-08-30T10:18:59;2.60;;;2.50;;
12689;SDS011;6409;56.294;14.480;2023-08-30T10:21:30;2.80;;;2.70;;
12689;SDS011;6409;56.294;14.480;2023-08-30T10:23:58;2.80;;;2.70;;
12689;SDS011;6409;56.294;14.480;2023-08-30T10:26:27;2.15;;;2.13;;
12689;SDS011;6409;56.294;14.480;2023-08-30T10:28:55;2.70;;;2.60;;
12689;SDS011;6409;56.294;14.480;2023-08-30T10:31:23;2.97;;;2.88;;
12689;SDS011;6409;56.294;14.480;2023-08-30T10:33:52;2.92;;;2.83;;
12689;SDS011;6409;56.294;14.480;2023-08-30T10:36:20;3.00;;;2.90;;
12689;SDS011;6409;56.294;14.480;2023-08-30T10:38:50;3.10;;;3.00;;
12689;SDS011;6409;56.294;14.480;2023-08-30T10:41:20;3.00;;;2.90;;
12689;SDS011;6409;56.294;14.480;2023-08-30T10:43:49;3.30;;;3.20;;
12689;SDS011;6409;56.294;14.480;2023-08-30T10:46:28;3.35;;;3.15;;
12689;SDS011;6409;56.294;14.480;2023-08-30T10:48:56;3.17;;;3.08;;
12689;SDS011;6409;56.294;14.480;2023-08-30T10:51:34;3.30;;;3.10;;
12689;SDS011;6409;56.294;14.480;2023-08-30T10:54:11;2.70;;;2.60;;
12689;SDS011;6409;56.294;14.480;2023-08-30T10:56:48;3.08;;;2.90;;
12689;SDS011;6409;56.294;14.480;2023-08-30T10:59:20;3.10;;;3.00;;
12689;SDS011;6409;56.294;14.480;2023-08-30T11:01:48;3.17;;;3.07;;
12689;SDS011;6409;56.294;14.480;2023-08-30T11:04:17;2.77;;;2.67;;
12689;SDS011;6409;56.294;14.480;2023-08-30T11:06:44;2.50;;;2.40;;
12689;SDS011;6409;56.294;14.480;2023-08-30T11:09:14;2.63;;;2.53;;
12689;SDS011;6409;56.294;14.480;2023-08-30T11:11:42;3.10;;;3.00;;
12689;SDS011;6409;56.294;14.480;2023-08-30T11:14:09;2.23;;;2.20;;
12689;SDS011;6409;56.294;14.480;2023-08-30T11:16:36;2.80;;;2.60;;
12689;SDS011;6409;56.294;14.480;2023-08-30T11:19:04;2.50;;;2.40;;
12689;SDS011;6409;56.294;14.480;2023-08-30T11:21:32;2.40;;;2.20;;
12689;SDS011;6409;56.294;14.480;2023-08-30T11:24:00;2.80;;;2.70;;
12689;SDS011;6409;56.294;14.480;2023-08-30T11:26:29;2.90;;;2.80;;
12689;SDS011;6409;56.294;14.480;2023-08-30T11:28:56;2.93;;;2.83;;
12689;SDS011;6409;56.294;14.480;2023-08-30T11:31:23;2.77;;;2.67;;
12689;SDS011;6409;56.294;14.480;2023-08-30T11:33:52;2.90;;;2.80;;
12689;SDS011;6409;56.294;14.480;2023-08-30T11:36:21;2.70;;;2.60;;
12689;SDS011;6409;56.294;14.480;2023-08-30T11:38:49;3.20;;;3.00;;
12689;SDS011;6409;56.294;14.480;2023-08-30T11:41:16;2.80;;;2.70;;
12689;SDS011;6409;56.294;14.480;2023-08-30T11:43:44;2.80;;;2.70;;
12689;SDS011;6409;56.294;14.480;2023-08-30T11:46:11;2.60;;;2.50;;
12689;SDS011;6409;56.294;14.480;2023-08-30T11:48:38;2.90;;;2.80;;
12689;SDS011;6409;56.294;14.480;2023-08-30T11:51:06;2.70;;;2.60;;
12689;SDS011;6409;56.294;14.480;2023-08-30T11:53:33;2.70;;;2.60;;
12689;SDS011;6409;56.294;14.480;2023-08-30T11:56:00;2.70;;;2.60;;
12689;SDS011;6409;56.294;14.480;2023-08-30T11:58:28;2.80;;;2.70;;
12689;SDS011;6409;56.294;14.480;2023-08-30T12:01:00;2.60;;;2.50;;
12689;SDS011;6409;56.294;14.480;2023-08-30T12:03:27;2.90;;;2.80;;
12689;SDS011;6409;56.294;14.480;2023-08-30T12:05:54;2.80;;;2.70;;
12689;SDS011;6409;56.294;14.480;2023-08-30T12:08:23;2.57;;;2.47;;
12689;SDS011;6409;56.294;14.480;2023-08-30T12:10:51;2.93;;;2.77;;
12689;SDS011;6409;56.294;14.480;2023-08-30T12:13:22;2.80;;;2.70;;
12689;SDS011;6409;56.294;14.480;2023-08-30T12:15:49;2.60;;;2.50;;
12689;SDS011;6409;56.294;14.480;2023-08-30T12:18:18;2.10;;;2.10;;
12689;SDS011;6409;56.294;14.480;2023-08-30T12:20:51;2.70;;;2.60;;
12689;SDS011;6409;56.294;14.480;2023-08-30T12:23:19;2.70;;;2.60;;
12689;SDS011;6409;56.294;14.480;2023-08-30T12:25:56;2.70;;;2.60;;
12689;SDS011;6409;56.294;14.480;2023-08-30T12:28:24;2.40;;;2.30;;
12689;SDS011;6409;56.294;14.480;2023-08-30T12:30:51;2.50;;;2.40;;
12689;SDS011;6409;56.294;14.480;2023-08-30T12:33:20;2.40;;;2.30;;
12689;SDS011;6409;56.294;14.480;2023-08-30T12:35:47;2.10;;;2.10;;
12689;SDS011;6409;56.294;14.480;2023-08-30T12:38:14;2.50;;;2.40;;
12689;SDS011;6409;56.294;14.480;2023-08-30T12:40:44;2.70;;;2.60;;
12689;SDS011;6409;56.294;14.480;2023-08-30T12:43:11;2.90;;;2.70;;
12689;SDS011;6409;56.294;14.480;2023-08-30T12:45:38;2.40;;;2.30;;
12689;SDS011;6409;56.294;14.480;2023-08-30T12:48:06;2.50;;;2.40;;
12689;SDS011;6409;56.294;14.480;2023-08-30T12:50:34;2.60;;;2.50;;
12689;SDS011;6409;56.294;14.480;2023-08-30T12:53:01;2.90;;;2.80;;
12689;SDS011;6409;56.294;14.480;2023-08-30T12:55:28;2.67;;;2.57;;
12689;SDS011;6409;56.294;14.480;2023-08-30T12:57:55;2.60;;;2.50;;
12689;SDS011;6409;56.294;14.480;2023-08-30T13:00:23;2.40;;;2.30;;
12689;SDS011;6409;56.294;14.480;2023-08-30T13:02:50;2.20;;;2.20;;
12689;SDS011;6409;56.294;14.480;2023-08-30T13:05:17;2.50;;;2.40;;
12689;SDS011;6409;56.294;14.480;2023-08-30T13:07:45;2.30;;;2.27;;
12689;SDS011;6409;56.294;14.480;2023-08-30T13:10:12;1.90;;;1.90;;
12689;SDS011;6409;56.294;14.480;2023-08-30T13:12:39;1.70;;;1.70;;
12689;SDS011;6409;56.294;14.480;2023-08-30T13:15:07;2.30;;;2.20;;
12689;SDS011;6409;56.294;14.480;2023-08-30T13:17:34;2.57;;;2.47;;
12689;SDS011;6409;56.294;14.480;2023-08-30T13:20:01;2.70;;;2.60;;
12689;SDS011;6409;56.294;14.480;2023-08-30T13:22:29;2.67;;;2.57;;
12689;SDS011;6409;56.294;14.480;2023-08-30T13:24:57;2.80;;;2.70;;
12689;SDS011;6409;56.294;14.480;2023-08-30T13:27:24;2.43;;;2.33;;
12689;SDS011;6409;56.294;14.480;2023-08-30T13:29:51;2.60;;;2.50;;
12689;SDS011;6409;56.294;14.480;2023-08-30T13:32:18;2.77;;;2.67;;
12689;SDS011;6409;56.294;14.480;2023-08-30T13:34:45;2.60;;;2.50;;
12689;SDS011;6409;56.294;14.480;2023-08-30T13:37:12;2.60;;;2.50;;
12689;SDS011;6409;56.294;14.480;2023-08-30T13:39:39;2.63;;;2.53;;
12689;SDS011;6409;56.294;14.480;2023-08-30T13:42:07;2.53;;;2.43;;
12689;SDS011;6409;56.294;14.480;2023-08-30T13:44:35;2.50;;;2.40;;
12689;SDS011;6409;56.294;14.480;2023-08-30T13:47:02;2.67;;;2.57;;
12689;SDS011;6409;56.294;14.480;2023-08-30T13:49:30;3.00;;;2.80;;
12689;SDS011;6409;56.294;14.480;2023-08-30T13:51:57;2.60;;;2.50;;
12689;SDS011;6409;56.294;14.480;2023-08-30T13:54:24;2.70;;;2.60;;
12689;SDS011;6409;56.294;14.480;2023-08-30T13:56:51;2.87;;;2.77;;
12689;SDS011;6409;56.294;14.480;2023-08-30T13:59:19;2.83;;;2.73;;
12689;SDS011;6409;56.294;14.480;2023-08-30T14:01:47;3.00;;;2.90;;
12689;SDS011;6409;56.294;14.480;2023-08-30T14:04:14;3.00;;;2.90;;
12689;SDS011;6409;56.294;14.480;2023-08-30T14:06:41;3.00;;;2.90;;
12689;SDS011;6409;56.294;14.480;2023-08-30T14:09:08;2.93;;;2.83;;
12689;SDS011;6409;56.294;14.480;2023-08-30T14:11:35;2.70;;;2.60;;
12689;SDS011;6409;56.294;14.480;2023-08-30T14:14:03;2.80;;;2.70;;
12689;SDS011;6409;56.294;14.480;2023-08-30T14:16:31;3.10;;;3.00;;
12689;SDS011;6409;56.294;14.480;2023-08-30T14:18:58;2.90;;;2.80;;
12689;SDS011;6409;56.294;14.480;2023-08-30T14:21:25;2.90;;;2.80;;
12689;SDS011;6409;56.294;14.480;2023-08-30T14:23:53;3.50;;;3.40;;
12689;SDS011;6409;56.294;14.480;2023-08-30T14:26:19;3.40;;;3.30;;
12689;SDS011;6409;56.294;14.480;2023-08-30T14:28:46;3.60;;;3.40;;
12689;SDS011;6409;56.294;14.480;2023-08-30T14:31:16;3.73;;;3.63;;
12689;SDS011;6409;56.294;14.480;2023-08-30T14:33:45;3.90;;;3.70;;
12689;SDS011;6409;56.294;14.480;2023-08-30T14:36:12;3.10;;;3.00;;
12689;SDS011;6409;56.294;14.480;2023-08-30T14:38:39;3.10;;;3.00;;
12689;SDS011;6409;56.294;14.480;2023-08-30T14:41:06;2.80;;;2.70;;
12689;SDS011;6409;56.294;14.480;2023-08-30T14:43:33;2.90;;;2.80;;
12689;SDS011;6409;56.294;14.480;2023-08-30T14:46:00;3.10;;;3.00;;
12689;SDS011;6409;56.294;14.480;2023-08-30T14:48:28;3.00;;;2.90;;
12689;SDS011;6409;56.294;14.480;2023-08-30T14:50:58;2.80;;;2.70;;
12689;SDS011;6409;56.294;14.480;2023-08-30T14:53:25;2.90;;;2.70;;